createdAt,value
2023-05-06T00:03:38.629Z,4.53
2023-05-06T00:08:42.037Z,4.47
2023-05-06T00:13:45.616Z,4.38
2023-05-06T00:18:48.718Z,4.33
2023-05-06T00:23:52.127Z,4.30
2023-05-06T00:28:55.234Z,4.29
2023-05-06T00:33:58.553Z,4.27
2023-05-06T00:39:01.658Z,4.22
2023-05-06T00:44:04.779Z,4.16
2023-05-06T00:49:08.371Z,4.14
2023-05-06T00:54:12.494Z,4.15
2023-05-06T00:59:16.347Z,4.13
2023-05-06T01:04:21.473Z,4.05
2023-05-06T01:09:38.730Z,3.97
2023-05-06T01:15:14.186Z,3.91
2023-05-06T01:20:21.287Z,3.87
2023-05-06T01:25:24.396Z,3.85
2023-05-06T01:30:41.295Z,3.74
2023-05-06T01:36:29.917Z,3.66
2023-05-06T01:41:35.050Z,3.60
2023-05-06T01:46:38.217Z,3.54
2023-05-06T01:51:48.116Z,3.44
2023-05-06T01:56:51.339Z,3.37
2023-05-06T02:01:54.445Z,3.32
2023-05-06T02:06:57.573Z,3.30
2023-05-06T02:12:00.858Z,3.26
2023-05-06T02:17:05.857Z,3.20
2023-05-06T02:22:09.123Z,3.12
2023-05-06T02:27:12.238Z,3.04
2023-05-06T02:32:15.435Z,2.98
2023-05-06T02:37:19.048Z,2.92
2023-05-06T02:42:22.186Z,2.82
2023-05-06T02:47:25.501Z,2.68
2023-05-06T02:52:28.784Z,2.62
2023-05-06T02:57:31.987Z,2.61
2023-05-06T03:02:35.197Z,2.60
2023-05-06T03:07:39.033Z,2.58
2023-05-06T03:12:42.176Z,2.56
2023-05-06T03:17:47.818Z,2.63
2023-05-06T03:22:51.034Z,2.69
2023-05-06T03:27:54.325Z,2.78
2023-05-06T03:33:01.495Z,2.84
2023-05-06T03:38:04.725Z,2.90
2023-05-06T03:43:07.978Z,2.96
2023-05-06T03:48:11.256Z,3.06
2023-05-06T03:53:14.448Z,3.22
2023-05-06T03:58:17.655Z,3.39
2023-05-06T04:03:20.964Z,3.57
2023-05-06T04:08:24.291Z,3.74
2023-05-06T04:13:27.277Z,3.93
2023-05-06T04:18:30.901Z,4.11
2023-05-06T04:23:34.321Z,4.25
2023-05-06T04:28:37.520Z,4.40
2023-05-06T04:33:41.555Z,4.52
2023-05-06T04:38:44.662Z,4.66
2023-05-06T04:43:47.785Z,4.83
2023-05-06T04:48:50.981Z,4.99
2023-05-06T04:53:54.195Z,5.12
2023-05-06T04:58:57.394Z,5.21
2023-05-06T05:04:00.636Z,5.34
2023-05-06T05:09:03.938Z,5.50
2023-05-06T05:14:07.019Z,5.54
2023-05-06T05:19:10.229Z,5.73
2023-05-06T05:24:13.773Z,5.85
2023-05-06T05:29:16.858Z,6.00
2023-05-06T05:34:20.082Z,6.21
2023-05-06T05:39:24.019Z,6.41
2023-05-06T05:44:27.122Z,6.54
2023-05-06T05:49:30.517Z,6.70
2023-05-06T05:54:33.856Z,6.90
2023-05-06T05:59:37.340Z,7.05
2023-05-06T06:04:40.485Z,7.22
2023-05-06T06:09:46.982Z,7.35
2023-05-06T06:14:50.848Z,7.57
2023-05-06T06:19:57.330Z,7.77
2023-05-06T06:25:00.440Z,7.97
2023-05-06T06:30:05.060Z,8.25
2023-05-06T06:35:08.721Z,8.52
2023-05-06T06:40:13.522Z,8.72
2023-05-06T06:45:17.175Z,8.95
2023-05-06T06:50:20.585Z,9.11
2023-05-06T06:55:23.905Z,9.30
2023-05-06T07:00:27.206Z,9.47
2023-05-06T07:05:30.409Z,9.65
2023-05-06T07:10:33.517Z,9.74
2023-05-06T07:15:36.827Z,9.81
2023-05-06T07:20:40.340Z,10.09
2023-05-06T07:25:43.581Z,10.36
2023-05-06T07:30:47.186Z,10.60
2023-05-06T07:35:50.389Z,10.73
2023-05-06T07:40:53.591Z,10.77
2023-05-06T07:46:02.953Z,10.93
2023-05-06T07:51:06.358Z,11.14
2023-05-06T07:56:09.667Z,11.34
2023-05-06T08:01:13.089Z,11.49
2023-05-06T08:06:16.409Z,11.56
2023-05-06T08:11:19.610Z,11.70
2023-05-06T08:16:25.027Z,11.84
2023-05-06T08:21:28.896Z,11.89
2023-05-06T08:26:32.098Z,12.19
2023-05-06T08:31:35.475Z,12.42
2023-05-06T08:36:39.028Z,12.62
2023-05-06T08:41:48.704Z,12.77
2023-05-06T08:46:52.203Z,12.64
2023-05-06T08:51:55.641Z,12.74
2023-05-06T08:57:04.309Z,12.69
2023-05-06T09:02:08.644Z,12.79
2023-05-06T09:07:12.202Z,12.87
2023-05-06T09:12:16.226Z,13.05
2023-05-06T09:17:26.826Z,13.41
2023-05-06T09:22:31.561Z,13.56
2023-05-06T09:27:37.056Z,13.63
2023-05-06T09:32:42.256Z,13.70
2023-05-06T09:37:45.589Z,13.61
2023-05-06T09:42:51.764Z,14.05
2023-05-06T09:47:56.120Z,14.33
2023-05-06T09:53:01.683Z,14.46
2023-05-06T09:58:06.651Z,14.78
2023-05-06T10:03:12.029Z,14.79
2023-05-06T10:08:18.979Z,14.99
2023-05-06T10:13:27.007Z,15.02
2023-05-06T10:18:31.497Z,14.97
2023-05-06T10:24:07.797Z,14.95
2023-05-06T10:29:11.953Z,15.07
2023-05-06T10:34:19.775Z,15.26
2023-05-06T10:39:24.098Z,14.90
2023-05-06T10:45:03.999Z,14.81
2023-05-06T10:50:28.053Z,14.73
2023-05-06T10:55:37.848Z,15.07
2023-05-06T11:00:42.002Z,15.32
2023-05-06T11:05:52.875Z,15.44
2023-05-06T11:10:56.177Z,15.57
2023-05-06T11:16:01.716Z,15.72
2023-05-06T11:21:08.100Z,15.86
2023-05-06T11:26:13.660Z,15.72
2023-05-06T11:31:18.056Z,15.94
2023-05-06T11:36:22.025Z,16.14
2023-05-06T11:41:25.580Z,16.37
2023-05-06T11:46:34.738Z,16.26
2023-05-06T11:51:37.913Z,16.23
2023-05-06T11:56:47.412Z,16.19
2023-05-06T12:01:50.664Z,16.18
2023-05-06T12:06:57.264Z,16.03
2023-05-06T12:12:04.432Z,15.79
2023-05-06T12:17:08.402Z,15.76
2023-05-06T12:22:24.936Z,15.73
2023-05-06T12:27:33.439Z,15.60
2023-05-06T12:32:37.082Z,15.53
2023-05-06T12:37:40.266Z,15.69
2023-05-06T12:42:43.580Z,15.73
2023-05-06T12:47:59.887Z,15.90
2023-05-06T12:53:05.750Z,15.86
2023-05-06T12:58:19.531Z,15.78
2023-05-06T13:03:22.744Z,15.83
2023-05-06T13:08:26.040Z,15.63
2023-05-06T13:13:29.349Z,15.52
2023-05-06T13:18:32.464Z,15.59
2023-05-06T13:23:37.102Z,15.55
2023-05-06T13:28:41.307Z,15.56
2023-05-06T13:33:44.476Z,15.61
2023-05-06T13:38:47.861Z,15.62
2023-05-06T13:43:51.191Z,15.75
2023-05-06T13:48:54.282Z,15.88
2023-05-06T13:53:57.591Z,15.89
2023-05-06T13:59:00.894Z,15.90
2023-05-06T14:04:04.316Z,15.84
2023-05-06T14:09:08.353Z,15.84
2023-05-06T14:14:11.445Z,15.85
2023-05-06T14:19:14.694Z,15.81
2023-05-06T14:24:17.958Z,15.83
2023-05-06T14:29:21.205Z,15.95
2023-05-06T14:34:24.392Z,15.92
2023-05-06T14:39:27.685Z,15.64
2023-05-06T14:44:31.308Z,15.54
2023-05-06T14:49:34.520Z,15.38
2023-05-06T14:54:42.788Z,15.30
2023-05-06T14:59:46.476Z,15.29
2023-05-06T15:04:49.675Z,15.31
2023-05-06T15:09:53.343Z,15.20
2023-05-06T15:14:57.239Z,15.09
2023-05-06T15:20:00.995Z,15.09
2023-05-06T15:25:05.283Z,15.14
2023-05-06T15:30:09.665Z,15.18
2023-05-06T15:35:13.053Z,15.14
2023-05-06T15:40:16.855Z,15.13
2023-05-06T15:45:22.328Z,15.04
2023-05-06T15:50:33.447Z,15.07
2023-05-06T15:55:45.207Z,15.06
2023-05-06T16:00:50.155Z,15.04
2023-05-06T16:05:56.679Z,15.00
2023-05-06T16:11:00.186Z,14.93
2023-05-06T16:16:03.584Z,14.92
2023-05-06T16:21:08.123Z,14.90
2023-05-06T16:26:11.558Z,14.77
2023-05-06T16:31:15.067Z,14.69
2023-05-06T16:36:18.268Z,14.64
2023-05-06T16:41:21.773Z,14.56
2023-05-06T16:46:26.463Z,14.49
2023-05-06T16:51:29.723Z,14.37
2023-05-06T16:56:43.894Z,14.27
2023-05-06T17:01:51.735Z,14.22
2023-05-06T17:06:58.089Z,14.12
2023-05-06T17:12:01.224Z,13.95
2023-05-06T17:17:05.678Z,13.94
2023-05-06T17:22:09.080Z,13.91
2023-05-06T17:27:12.357Z,13.80
2023-05-06T17:32:16.176Z,13.65
2023-05-06T17:37:19.382Z,13.43
2023-05-06T17:42:22.734Z,13.29
2023-05-06T17:47:30.445Z,13.22
2023-05-06T17:52:34.030Z,13.13
2023-05-06T17:57:37.464Z,12.98
2023-05-06T18:02:41.647Z,12.81
2023-05-06T18:07:44.995Z,12.65
2023-05-06T18:12:48.468Z,12.58
2023-05-06T18:17:51.961Z,12.43
2023-05-06T18:22:56.488Z,12.32
2023-05-06T18:27:59.607Z,12.24
2023-05-06T18:33:02.902Z,12.03
2023-05-06T18:38:06.092Z,11.89
2023-05-06T18:43:09.296Z,11.75
2023-05-06T18:48:13.011Z,11.62
2023-05-06T18:53:16.942Z,11.52
2023-05-06T18:58:20.154Z,11.42
2023-05-06T19:03:23.975Z,11.35
2023-05-06T19:08:27.293Z,11.26
2023-05-06T19:13:31.520Z,11.19
2023-05-06T19:18:34.753Z,11.10
2023-05-06T19:23:38.294Z,11.02
2023-05-06T19:28:41.580Z,10.91
2023-05-06T19:33:46.300Z,10.86
2023-05-06T19:38:49.508Z,10.79
2023-05-06T19:43:52.822Z,10.68
2023-05-06T19:48:56.023Z,10.55
2023-05-06T19:53:59.174Z,10.46
2023-05-06T19:59:02.444Z,10.39
2023-05-06T20:04:05.713Z,10.33
2023-05-06T20:09:10.501Z,10.24
2023-05-06T20:14:14.255Z,10.17
2023-05-06T20:19:17.658Z,10.10
2023-05-06T20:24:20.990Z,10.06
2023-05-06T20:29:24.261Z,9.98
2023-05-06T20:34:28.224Z,9.85
2023-05-06T20:39:33.972Z,9.77
2023-05-06T20:44:37.261Z,9.64
2023-05-06T20:49:40.470Z,9.52
2023-05-06T20:54:45.732Z,9.45
2023-05-06T20:59:52.908Z,9.37
2023-05-06T21:04:56.145Z,9.32
2023-05-06T21:10:00.577Z,9.22
2023-05-06T21:15:04.801Z,9.12
2023-05-06T21:20:09.236Z,9.02
2023-05-06T21:25:13.495Z,8.94
2023-05-06T21:30:17.708Z,8.87
2023-05-06T21:35:21.125Z,8.84
2023-05-06T21:40:24.545Z,8.78
2023-05-06T21:45:27.847Z,8.68
2023-05-06T21:50:31.175Z,8.59
2023-05-06T21:55:34.478Z,8.52
2023-05-06T22:00:37.805Z,8.44
2023-05-06T22:05:41.308Z,8.34
2023-05-06T22:10:44.606Z,8.29
2023-05-06T22:15:47.842Z,8.24
2023-05-06T22:20:52.671Z,8.22
2023-05-06T22:25:56.629Z,8.15
2023-05-06T22:31:01.384Z,8.05
2023-05-06T22:36:05.595Z,8.01
2023-05-06T22:41:08.813Z,7.93
2023-05-06T22:46:12.036Z,7.87
2023-05-06T22:51:16.231Z,7.75
2023-05-06T22:56:20.172Z,7.66
2023-05-06T23:01:25.470Z,7.57
2023-05-06T23:06:28.707Z,7.51
2023-05-06T23:11:31.924Z,7.44
2023-05-06T23:16:35.276Z,7.34
2023-05-06T23:21:41.622Z,7.26
2023-05-06T23:26:44.825Z,7.17
2023-05-06T23:31:48.131Z,7.07
2023-05-06T23:36:51.749Z,6.99
2023-05-06T23:41:54.965Z,6.93
2023-05-06T23:46:58.273Z,6.86
2023-05-06T23:52:01.794Z,6.72
2023-05-06T23:57:04.934Z,6.59
